Time;durP1;ratioP1;P1;durP2;ratioP2;P2;SDS_P1;SDS_P2;PMS_P1;PMS_P2;Temp;Humidity;BMP_temperature;BMP_pressure;BME280_temperature;BME280_humidity;BME280_pressure;Samples;Min_cycle;Max_cycle;Signal;HPM_P1;HPM_P2
2024/04/04 00:01:10;;;;;;;;;;;;;;;;;;107801;1246;62706;-80
2024/04/04 00:03:46;;;;;;;;;;;;;;;;;;107756;1247;63437;-79
2024/04/04 00:06:12;;;;;;;;;;;;;;;;;;107799;1249;62946;-80
2024/04/04 00:08:38;;;;;;;;;;;;;;;;;;107770;1248;62893;-79
2024/04/04 00:11:04;;;;;;;;;;;;;;;;;;107764;1245;63519;-80
2024/04/04 00:13:31;;;;;;;;;;;;;;;;;;107831;1247;62960;-80
2024/04/04 00:15:57;;;;;;;;;;;;;;;;;;107832;1246;63019;-79
2024/04/04 00:18:23;;;;;;;;;;;;;;;;;;107821;1246;62864;-80
2024/04/04 00:20:49;;;;;;;;;;;;;;;;;;107814;1249;62937;-79
2024/04/04 00:23:15;;;;;;;;;;;;;;;;;;107793;1249;62950;-80
2024/04/04 00:25:42;;;;;;;;;;;;;;;;;;107779;1249;62860;-80
2024/04/04 00:28:08;;;;;;;;;;;;;;;;;;107785;1245;61091;-80
2024/04/04 00:30:35;;;;;;;;;;;;;;;;;;107822;1249;62911;-81
2024/04/04 00:33:01;;;;;;;;;;;;;;;;;;107743;1249;62851;-80
2024/04/04 00:35:27;;;;;;;;;;;;;;;;;;107820;1244;62802;-80
2024/04/04 00:37:53;;;;;;;;;;;;;;;;;;107766;1245;62957;-81
2024/04/04 00:40:19;;;;;;;;;;;;;;;;;;107754;1247;62976;-81
2024/04/04 00:42:45;;;;;;;;;;;;;;;;;;107787;1249;62825;-80
2024/04/04 00:45:12;;;;;;;;;;;;;;;;;;107777;1249;62931;-80
2024/04/04 00:47:38;;;;;;;;;;;;;;;;;;107689;1245;63002;-81
2024/04/04 00:50:04;;;;;;;;;;;;;;;;;;107715;1246;62880;-79
2024/04/04 00:52:30;;;;;;;;;;;;;;;;;;107725;1247;64012;-80
2024/04/04 00:54:56;;;;;;;;;;;;;;;;;;107740;1245;63025;-80
2024/04/04 00:57:22;;;;;;;;;;;;;;;;;;107778;1248;63009;-79
2024/04/04 00:59:49;;;;;;;;;;;;;;;;;;107128;1245;62874;-80
2024/04/04 01:02:15;;;;;;;;;;;;;;;;;;107759;1246;62944;-79
2024/04/04 01:04:41;;;;;;;;;;;;;;;;;;107722;1247;62893;-79
2024/04/04 01:07:07;;;;;;;;;;;;;;;;;;107699;1249;62845;-80
2024/04/04 01:09:33;;;;;;;;;;;;;;;;;;107750;1245;63150;-80
2024/04/04 01:11:59;;;;;;;;;;;;;;;;;;107790;1245;61489;-80
2024/04/04 01:14:26;;;;;;;;;;;;;;;;;;107850;1247;62934;-79
2024/04/04 01:16:52;;;;;;;;;;;;;;;;;;107735;1245;62919;-80
2024/04/04 01:19:18;;;;;;;;;;;;;;;;;;107755;1249;63021;-80
2024/04/04 01:21:44;;;;;;;;;;;;;;;;;;107799;1247;63926;-80
2024/04/04 01:24:10;;;;;;;;;;;;;;;;;;107766;1247;62934;-80
2024/04/04 01:26:36;;;;;;;;;;;;;;;;;;107776;1247;62877;-80
2024/04/04 01:29:03;;;;;;;;;;;;;;;;;;107763;1246;62922;-80
2024/04/04 01:31:30;;;;;;;;;;;;;;;;;;107788;1245;62835;-80
2024/04/04 01:33:56;;;;;;;;;;;;;;;;;;107774;1245;63479;-80
2024/04/04 01:36:22;;;;;;;;;;;;;;;;;;107790;1246;62928;-81
2024/04/04 01:38:48;;;;;;;;;;;;;;;;;;107729;1245;62884;-80
2024/04/04 01:41:14;;;;;;;;;;;;;;;;;;107692;1247;62949;-80
2024/04/04 01:43:41;;;;;;;;;;;;;;;;;;107169;1249;62749;-80
2024/04/04 01:46:07;;;;;;;;;;;;;;;;;;107783;1249;62836;-80
2024/04/04 01:48:33;;;;;;;;;;;;;;;;;;107774;1247;62972;-79
2024/04/04 01:50:59;;;;;;;;;;;;;;;;;;107775;1246;62954;-80
2024/04/04 01:53:25;;;;;;;;;;;;;;;;;;107738;1249;62953;-80
2024/04/04 01:55:51;;;;;;;;;;;;;;;;;;107796;1249;62836;-79
2024/04/04 01:58:17;;;;;;;;;;;;;;;;;;107794;1245;62947;-80
2024/04/04 02:00:44;;;;;;;;;;;;;;;;;;107838;1247;62869;-79
2024/04/04 02:03:11;;;;;;;;;;;;;;;;;;107781;1244;62869;-80
2024/04/04 02:05:37;;;;;;;;;;;;;;;;;;107767;1244;60777;-79
2024/04/04 02:08:04;;;;;;;;;;;;;;;;;;107755;1245;62918;-81
2024/04/04 02:10:30;;;;;;;;;;;;;;;;;;107743;1247;62756;-80
2024/04/04 02:12:57;;;;;;;;;;;;;;;;;;107783;1249;62886;-80
2024/04/04 02:15:23;;;;;;;;;;;;;;;;;;107762;1245;62982;-80
2024/04/04 02:17:49;;;;;;;;;;;;;;;;;;107737;1244;62760;-80
2024/04/04 02:20:16;;;;;;;;;;;;;;;;;;107776;1244;62956;-80
2024/04/04 02:22:42;;;;;;;;;;;;;;;;;;107769;1249;62775;-81
2024/04/04 02:25:09;;;;;;;;;;;;;;;;;;107791;1248;62924;-80
2024/04/04 02:27:35;;;;;;;;;;;;;;;;;;107762;1247;62952;-80
2024/04/04 02:30:01;;;;;;;;;;;;;;;;;;107205;1250;63483;-80
2024/04/04 02:32:28;;;;;;;;;;;;;;;;;;107192;1249;62811;-81
2024/04/04 02:34:54;;;;;;;;;;;;;;;;;;107769;1247;62825;-80
2024/04/04 02:37:20;;;;;;;;;;;;;;;;;;107804;1244;62950;-80
2024/04/04 02:39:46;;;;;;;;;;;;;;;;;;107130;1249;63206;-80
2024/04/04 02:42:12;;;;;;;;;;;;;;;;;;107138;1249;63216;-80
2024/04/04 02:44:39;;;;;;;;;;;;;;;;;;107105;1247;62866;-79
2024/04/04 02:47:05;;;;;;;;;;;;;;;;;;107197;1245;63441;-81
2024/04/04 02:49:31;;;;;;;;;;;;;;;;;;107867;1250;63208;-80
2024/04/04 02:51:57;;;;;;;;;;;;;;;;;;107836;1247;64659;-80
2024/04/04 02:54:23;;;;;;;;;;;;;;;;;;107898;1245;62835;-81
2024/04/04 02:56:50;;;;;;;;;;;;;;;;;;107812;1247;62887;-80
2024/04/04 02:59:16;;;;;;;;;;;;;;;;;;107783;1249;64116;-80
2024/04/04 03:01:42;;;;;;;;;;;;;;;;;;107745;1244;62945;-79
2024/04/04 03:04:09;;;;;;;;;;;;;;;;;;107753;1247;62964;-80
2024/04/04 03:06:35;;;;;;;;;;;;;;;;;;107780;1247;62815;-79
2024/04/04 03:09:03;;;;;;;;;;;;;;;;;;107747;1247;62883;-79
2024/04/04 03:11:29;;;;;;;;;;;;;;;;;;107814;1249;62941;-80
2024/04/04 03:13:55;;;;;;;;;;;;;;;;;;107787;1249;62939;-81
2024/04/04 03:16:21;;;;;;;;;;;;;;;;;;107820;1249;63319;-80
2024/04/04 03:18:48;;;;;;;;;;;;;;;;;;107776;1245;62947;-80
2024/04/04 03:21:14;;;;;;;;;;;;;;;;;;107816;1247;62954;-79
2024/04/04 03:23:40;;;;;;;;;;;;;;;;;;107763;1249;62940;-83
2024/04/04 03:26:06;;;;;;;;;;;;;;;;;;107836;1248;62854;-80
2024/04/04 03:28:32;;;;;;;;;;;;;;;;;;107849;1247;62861;-80
2024/04/04 03:30:58;;;;;;;;;;;;;;;;;;107794;1247;62940;-81
2024/04/04 03:33:24;;;;;;;;;;;;;;;;;;107774;1249;62943;-80
2024/04/04 03:35:51;;;;;;;;;;;;;;;;;;107826;1250;62941;-79
2024/04/04 03:38:17;;;;;;;;;;;;;;;;;;107150;1246;62895;-80
2024/04/04 03:40:43;;;;;;;;;;;;;;;;;;107161;1247;62951;-80
2024/04/04 03:43:09;;;;;;;;;;;;;;;;;;107181;1250;62857;-80
2024/04/04 03:45:35;;;;;;;;;;;;;;;;;;108858;1249;62898;-80
2024/04/04 03:48:01;;;;;;;;;;;;;;;;;;107800;1247;63884;-80
2024/04/04 03:50:27;;;;;;;;;;;;;;;;;;107788;1247;62743;-80
2024/04/04 03:52:54;;;;;;;;;;;;;;;;;;107804;1247;62841;-81
2024/04/04 03:55:20;;;;;;;;;;;;;;;;;;107795;1249;61271;-80
2024/04/04 03:57:46;;;;;;;;;;;;;;;;;;107808;1247;62938;-79
2024/04/04 04:00:12;;;;;;;;;;;;;;;;;;107824;1249;62877;-80
2024/04/04 04:02:39;;;;;;;;;;;;;;;;;;107785;1245;63556;-80
2024/04/04 04:05:06;;;;;;;;;;;;;;;;;;107786;1249;62883;-80
2024/04/04 04:07:32;;;;;;;;;;;;;;;;;;107583;1245;60896;-81
2024/04/04 04:09:58;;;;;;;;;;;;;;;;;;110238;1245;60849;-80
2024/04/04 04:12:25;;;;;;;;;;;;;;;;;;110266;1245;60462;-81
2024/04/04 04:14:51;;;;;;;;;;;;;;;;;;108900;1250;62933;-79
2024/04/04 04:17:17;;;;;;;;;;;;;;;;;;107737;1249;61841;-80
2024/04/04 04:19:43;;;;;;;;;;;;;;;;;;107747;1245;63187;-80
2024/04/04 04:22:09;;;;;;;;;;;;;;;;;;107765;1245;62957;-80
2024/04/04 04:24:35;;;;;;;;;;;;;;;;;;107751;1245;64043;-81
2024/04/04 04:27:02;;;;;;;;;;;;;;;;;;107798;1251;62967;-80
2024/04/04 04:29:28;;;;;;;;;;;;;;;;;;107799;1245;62935;-81
2024/04/04 04:31:56;;;;;;;;;;;;;;;;;;107822;1250;62870;-81
2024/04/04 04:34:22;;;;;;;;;;;;;;;;;;107807;1250;62955;-81
2024/04/04 04:36:48;;;;;;;;;;;;;;;;;;107813;1249;62863;-81
2024/04/04 04:39:15;;;;;;;;;;;;;;;;;;107783;1249;63004;-80
2024/04/04 04:41:41;;;;;;;;;;;;;;;;;;107788;1247;62835;-80
2024/04/04 04:44:07;;;;;;;;;;;;;;;;;;107870;1245;62829;-82
2024/04/04 04:46:33;;;;;;;;;;;;;;;;;;107886;1247;62937;-80
2024/04/04 04:48:59;;;;;;;;;;;;;;;;;;107815;1249;62846;-82
2024/04/04 04:51:25;;;;;;;;;;;;;;;;;;107817;1245;62857;-81
2024/04/04 04:53:52;;;;;;;;;;;;;;;;;;107730;1245;63037;-81
2024/04/04 04:56:18;;;;;;;;;;;;;;;;;;107800;1245;63215;-80
2024/04/04 04:58:44;;;;;;;;;;;;;;;;;;107863;1245;63014;-81
2024/04/04 05:01:10;;;;;;;;;;;;;;;;;;107809;1244;62826;-83
2024/04/04 05:03:37;;;;;;;;;;;;;;;;;;107869;1249;62822;-80
2024/04/04 05:06:04;;;;;;;;;;;;;;;;;;107879;1250;62944;-82
2024/04/04 05:08:30;;;;;;;;;;;;;;;;;;107750;1244;62943;-80
2024/04/04 05:10:57;;;;;;;;;;;;;;;;;;107809;1249;63478;-80
2024/04/04 05:13:23;;;;;;;;;;;;;;;;;;107838;1248;62854;-82
2024/04/04 05:15:49;;;;;;;;;;;;;;;;;;107669;1251;62953;-81
2024/04/04 05:18:15;;;;;;;;;;;;;;;;;;107768;1246;62832;-80
2024/04/04 05:20:42;;;;;;;;;;;;;;;;;;107643;1248;62877;-80
2024/04/04 05:23:08;;;;;;;;;;;;;;;;;;107813;1245;62893;-80
2024/04/04 05:25:34;;;;;;;;;;;;;;;;;;107728;1250;62897;-79
2024/04/04 05:28:00;;;;;;;;;;;;;;;;;;107797;1250;62956;-80
2024/04/04 05:30:28;;;;;;;;;;;;;;;;;;107755;1245;62876;-80
2024/04/04 05:32:54;;;;;;;;;;;;;;;;;;107893;1250;62864;-81
2024/04/04 05:35:20;;;;;;;;;;;;;;;;;;107800;1245;62997;-81
2024/04/04 05:37:46;;;;;;;;;;;;;;;;;;107783;1244;62880;-79
2024/04/04 05:40:12;;;;;;;;;;;;;;;;;;107820;1249;62935;-81
2024/04/04 05:42:39;;;;;;;;;;;;;;;;;;107781;1251;62845;-80
2024/04/04 05:45:05;;;;;;;;;;;;;;;;;;107739;1250;62807;-80
2024/04/04 05:47:31;;;;;;;;;;;;;;;;;;107787;1245;62942;-81
2024/04/04 05:49:57;;;;;;;;;;;;;;;;;;107775;1244;62879;-80
2024/04/04 05:52:23;;;;;;;;;;;;;;;;;;107773;1249;62818;-80
2024/04/04 05:54:49;;;;;;;;;;;;;;;;;;107651;1250;63032;-81
2024/04/04 05:57:16;;;;;;;;;;;;;;;;;;107821;1246;62963;-80
2024/04/04 05:59:42;;;;;;;;;;;;;;;;;;107157;1250;62937;-81
2024/04/04 06:02:09;;;;;;;;;;;;;;;;;;107845;1250;62864;-81
2024/04/04 06:04:35;;;;;;;;;;;;;;;;;;107689;1251;62944;-81
2024/04/04 06:07:02;;;;;;;;;;;;;;;;;;107645;1246;63850;-80
2024/04/04 06:09:28;;;;;;;;;;;;;;;;;;107501;1245;177939;-80
2024/04/04 06:11:54;;;;;;;;;;;;;;;;;;107708;1245;63837;-80
2024/04/04 06:14:21;;;;;;;;;;;;;;;;;;108177;1248;63179;-81
2024/04/04 06:16:47;;;;;;;;;;;;;;;;;;107789;1250;62950;-80
2024/04/04 06:19:13;;;;;;;;;;;;;;;;;;107740;1245;62829;-81
2024/04/04 06:21:39;;;;;;;;;;;;;;;;;;107854;1244;62826;-81
2024/04/04 06:24:05;;;;;;;;;;;;;;;;;;107861;1249;62921;-81
2024/04/04 06:26:31;;;;;;;;;;;;;;;;;;107811;1249;63053;-80
2024/04/04 06:28:58;;;;;;;;;;;;;;;;;;107842;1244;62797;-81
2024/04/04 06:31:24;;;;;;;;;;;;;;;;;;107842;1246;62931;-81
2024/04/04 06:33:50;;;;;;;;;;;;;;;;;;108153;1248;62928;-81
2024/04/04 06:36:16;;;;;;;;;;;;;;;;;;108012;1245;62960;-81
2024/04/04 06:38:42;;;;;;;;;;;;;;;;;;107955;1250;62915;-81
2024/04/04 06:41:09;;;;;;;;;;;;;;;;;;108080;1245;62806;-80
2024/04/04 06:43:35;;;;;;;;;;;;;;;;;;108118;1245;62946;-80
2024/04/04 06:46:01;;;;;;;;;;;;;;;;;;108106;1250;62835;-80
2024/04/04 06:48:27;;;;;;;;;;;;;;;;;;107934;1245;62852;-81
2024/04/04 06:50:53;;;;;;;;;;;;;;;;;;107825;1250;62700;-80
2024/04/04 06:53:19;;;;;;;;;;;;;;;;;;108253;1250;62974;-81
2024/04/04 06:55:46;;;;;;;;;;;;;;;;;;109006;1244;63304;-80
2024/04/04 06:58:15;;;;;;;;;;;;;;;;;;110075;1250;60744;-80
2024/04/04 07:00:42;;;;;;;;;;;;;;;;;;108094;1245;62889;-81
2024/04/04 07:03:08;;;;;;;;;;;;;;;;;;108197;1245;62920;-80
2024/04/04 07:05:34;;;;;;;;;;;;;;;;;;108090;1250;61499;-80
2024/04/04 07:08:01;;;;;;;;;;;;;;;;;;108154;1244;62886;-81
2024/04/04 07:10:27;;;;;;;;;;;;;;;;;;108054;1250;62855;-80
2024/04/04 07:12:53;;;;;;;;;;;;;;;;;;108021;1250;65071;-80
2024/04/04 07:15:19;;;;;;;;;;;;;;;;;;108069;1250;61275;-80
2024/04/04 07:17:48;;;;;;;;;;;;;;;;;;107996;1244;62963;-80
2024/04/04 07:20:14;;;;;;;;;;;;;;;;;;107890;1250;62939;-82
2024/04/04 07:22:41;;;;;;;;;;;;;;;;;;107970;1244;62842;-81
2024/04/04 07:25:07;;;;;;;;;;;;;;;;;;108004;1250;62963;-82
2024/04/04 07:27:34;;;;;;;;;;;;;;;;;;108078;1244;62714;-81
2024/04/04 07:30:00;;;;;;;;;;;;;;;;;;108046;1244;62947;-81
2024/04/04 07:32:26;;;;;;;;;;;;;;;;;;108270;1244;62940;-80
2024/04/04 07:34:52;;;;;;;;;;;;;;;;;;107901;1247;61669;-81
2024/04/04 07:37:18;;;;;;;;;;;;;;;;;;107963;1247;62844;-81
2024/04/04 07:39:44;;;;;;;;;;;;;;;;;;107900;1244;62816;-81
2024/04/04 07:42:11;;;;;;;;;;;;;;;;;;107957;1249;62903;-81
2024/04/04 07:44:38;;;;;;;;;;;;;;;;;;108011;1244;62798;-81
2024/04/04 07:47:04;;;;;;;;;;;;;;;;;;108067;1245;62951;-81
2024/04/04 07:49:30;;;;;;;;;;;;;;;;;;107956;1247;63552;-81
2024/04/04 07:51:56;;;;;;;;;;;;;;;;;;107900;1245;63448;-81
2024/04/04 07:54:23;;;;;;;;;;;;;;;;;;108014;1249;62980;-80
2024/04/04 07:56:50;;;;;;;;;;;;;;;;;;108030;1248;60751;-82
2024/04/04 07:59:16;;;;;;;;;;;;;;;;;;108061;1244;62917;-82
2024/04/04 08:01:43;;;;;;;;;;;;;;;;;;107979;1244;62933;-81
2024/04/04 08:04:09;;;;;;;;;;;;;;;;;;108104;1250;61200;-82
2024/04/04 08:06:35;;;;;;;;;;;;;;;;;;108091;1249;62829;-82
2024/04/04 08:09:01;;;;;;;;;;;;;;;;;;108012;1244;62822;-81
2024/04/04 08:11:27;;;;;;;;;;;;;;;;;;107883;1246;62946;-81
2024/04/04 08:13:53;;;;;;;;;;;;;;;;;;108167;1244;62879;-81
2024/04/04 08:16:20;;;;;;;;;;;;;;;;;;108025;1248;62829;-82
2024/04/04 08:18:46;;;;;;;;;;;;;;;;;;107982;1244;62866;-81
2024/04/04 08:21:12;;;;;;;;;;;;;;;;;;108243;1244;62962;-82
2024/04/04 08:23:39;;;;;;;;;;;;;;;;;;110131;1244;60801;-82
2024/04/04 08:26:05;;;;;;;;;;;;;;;;;;110238;1245;60462;-82
2024/04/04 08:28:31;;;;;;;;;;;;;;;;;;109461;1245;60800;-81
2024/04/04 08:30:57;;;;;;;;;;;;;;;;;;108052;1245;62918;-82
2024/04/04 08:33:24;;;;;;;;;;;;;;;;;;108073;1244;62876;-81
2024/04/04 08:35:50;;;;;;;;;;;;;;;;;;108042;1244;62933;-80
2024/04/04 08:38:16;;;;;;;;;;;;;;;;;;108013;1247;63689;-80
2024/04/04 08:40:43;;;;;;;;;;;;;;;;;;107947;1245;62880;-81
2024/04/04 08:43:09;;;;;;;;;;;;;;;;;;109986;1244;62678;-82
2024/04/04 08:45:35;;;;;;;;;;;;;;;;;;110133;1244;60700;-81
2024/04/04 08:48:01;;;;;;;;;;;;;;;;;;110299;1244;60676;-82
2024/04/04 08:50:29;;;;;;;;;;;;;;;;;;110398;1244;60814;-80
2024/04/04 08:52:55;;;;;;;;;;;;;;;;;;110310;1244;60478;-81
2024/04/04 08:55:21;;;;;;;;;;;;;;;;;;110266;1244;60866;-80
2024/04/04 08:57:47;;;;;;;;;;;;;;;;;;108365;1244;62960;-79
2024/04/04 09:00:13;;;;;;;;;;;;;;;;;;107943;1250;62886;-80
2024/04/04 09:02:40;;;;;;;;;;;;;;;;;;107995;1244;62863;-80
2024/04/04 09:05:06;;;;;;;;;;;;;;;;;;107994;1245;62966;-81
2024/04/04 09:07:32;;;;;;;;;;;;;;;;;;108156;1244;62803;-80
2024/04/04 09:09:58;;;;;;;;;;;;;;;;;;108059;1245;63824;-81
2024/04/04 09:12:25;;;;;;;;;;;;;;;;;;108013;1244;62739;-80
2024/04/04 09:14:51;;;;;;;;;;;;;;;;;;108160;1244;62845;-80
2024/04/04 09:17:18;;;;;;;;;;;;;;;;;;108162;1244;62957;-81
2024/04/04 09:19:44;;;;;;;;;;;;;;;;;;108063;1244;60789;-80
2024/04/04 09:22:11;;;;;;;;;;;;;;;;;;107793;1249;63809;-81
2024/04/04 09:24:37;;;;;;;;;;;;;;;;;;107813;1251;61509;-80
2024/04/04 09:27:03;;;;;;;;;;;;;;;;;;107861;1250;62819;-80
2024/04/04 09:29:29;;;;;;;;;;;;;;;;;;107794;1249;63373;-80
2024/04/04 09:31:57;;;;;;;;;;;;;;;;;;107708;1250;62892;-80
2024/04/04 09:34:23;;;;;;;;;;;;;;;;;;107848;1244;62831;-80
2024/04/04 09:36:50;;;;;;;;;;;;;;;;;;107843;1247;63018;-80
2024/04/04 09:39:19;;;;;;;;;;;;;;;;;;108005;1244;62927;-80
2024/04/04 09:41:45;;;;;;;;;;;;;;;;;;107603;1247;63597;-80
2024/04/04 09:44:11;;;;;;;;;;;;;;;;;;107924;1244;62963;-80
2024/04/04 09:46:38;;;;;;;;;;;;;;;;;;107935;1248;62940;-82
2024/04/04 09:49:04;;;;;;;;;;;;;;;;;;107852;1249;62860;-80
2024/04/04 09:51:32;;;;;;;;;;;;;;;;;;107808;1247;63376;-81
2024/04/04 09:53:58;;;;;;;;;;;;;;;;;;107655;1245;63939;-82
2024/04/04 09:56:24;;;;;;;;;;;;;;;;;;107774;1244;62918;-80
2024/04/04 09:58:50;;;;;;;;;;;;;;;;;;107820;1249;63310;-80
2024/04/04 10:01:18;;;;;;;;;;;;;;;;;;107765;1244;62717;-81
2024/04/04 10:03:44;;;;;;;;;;;;;;;;;;107833;1244;62983;-81
2024/04/04 10:06:10;;;;;;;;;;;;;;;;;;108010;1244;62825;-80
2024/04/04 10:08:36;;;;;;;;;;;;;;;;;;107954;1244;62966;-81
2024/04/04 10:11:03;;;;;;;;;;;;;;;;;;107711;1245;62829;-80
2024/04/04 10:13:29;;;;;;;;;;;;;;;;;;107911;1244;63046;-79
2024/04/04 10:15:55;;;;;;;;;;;;;;;;;;107846;1249;63049;-80
2024/04/04 10:18:21;;;;;;;;;;;;;;;;;;107769;1244;62839;-80
2024/04/04 10:20:47;;;;;;;;;;;;;;;;;;107671;1249;62948;-81
2024/04/04 10:23:14;;;;;;;;;;;;;;;;;;108030;1247;63039;-81
2024/04/04 10:25:43;;;;;;;;;;;;;;;;;;107739;1244;62878;-80
2024/04/04 10:28:09;;;;;;;;;;;;;;;;;;107850;1247;62799;-81
2024/04/04 10:30:35;;;;;;;;;;;;;;;;;;107712;1249;62861;-80
2024/04/04 10:33:02;;;;;;;;;;;;;;;;;;107816;1247;63020;-79
2024/04/04 10:35:28;;;;;;;;;;;;;;;;;;107782;1247;62854;-79
2024/04/04 10:37:54;;;;;;;;;;;;;;;;;;107881;1245;62895;-79
2024/04/04 10:40:20;;;;;;;;;;;;;;;;;;107872;1247;63008;-81
2024/04/04 10:42:46;;;;;;;;;;;;;;;;;;107823;1244;62854;-80
2024/04/04 10:45:12;;;;;;;;;;;;;;;;;;107814;1244;62959;-81
2024/04/04 10:47:39;;;;;;;;;;;;;;;;;;107911;1244;62964;-81
2024/04/04 10:50:05;;;;;;;;;;;;;;;;;;107583;1249;62950;-81
2024/04/04 10:52:31;;;;;;;;;;;;;;;;;;107701;1247;62824;-81
2024/04/04 10:54:57;;;;;;;;;;;;;;;;;;107701;1244;62864;-81
2024/04/04 10:57:24;;;;;;;;;;;;;;;;;;107838;1244;63976;-81
2024/04/04 10:59:50;;;;;;;;;;;;;;;;;;107663;1250;61505;-80
2024/04/04 11:02:16;;;;;;;;;;;;;;;;;;107605;1244;61717;-81
2024/04/04 11:04:43;;;;;;;;;;;;;;;;;;107761;1249;62927;-81
2024/04/04 11:07:10;;;;;;;;;;;;;;;;;;107684;1248;62758;-81
2024/04/04 11:09:36;;;;;;;;;;;;;;;;;;107646;1249;63033;-81
2024/04/04 11:12:02;;;;;;;;;;;;;;;;;;107668;1244;62956;-81
2024/04/04 11:14:29;;;;;;;;;;;;;;;;;;107740;1249;62950;-80
2024/04/04 11:16:55;;;;;;;;;;;;;;;;;;107679;1246;62886;-81
2024/04/04 11:19:22;;;;;;;;;;;;;;;;;;107727;1244;62924;-81
2024/04/04 11:21:49;;;;;;;;;;;;;;;;;;107898;1244;62899;-80
2024/04/04 11:24:15;;;;;;;;;;;;;;;;;;107757;1244;62802;-81
2024/04/04 11:26:42;;;;;;;;;;;;;;;;;;107793;1248;62791;-81
2024/04/04 11:29:09;;;;;;;;;;;;;;;;;;107735;1247;63012;-81
2024/04/04 11:31:35;;;;;;;;;;;;;;;;;;107913;1244;62984;-81
2024/04/04 11:34:01;;;;;;;;;;;;;;;;;;108003;1246;62707;-80
2024/04/04 11:36:27;;;;;;;;;;;;;;;;;;107969;1247;62851;-81
2024/04/04 11:38:53;;;;;;;;;;;;;;;;;;108078;1245;62805;-81
2024/04/04 11:41:19;;;;;;;;;;;;;;;;;;107924;1244;61116;-80
2024/04/04 11:43:46;;;;;;;;;;;;;;;;;;108070;1247;62838;-81
2024/04/04 11:46:12;;;;;;;;;;;;;;;;;;108072;1249;62798;-81
2024/04/04 11:48:38;;;;;;;;;;;;;;;;;;108023;1244;62928;-81
2024/04/04 11:51:04;;;;;;;;;;;;;;;;;;108480;1244;61190;-82
2024/04/04 11:53:30;;;;;;;;;;;;;;;;;;110222;1244;60457;-80
2024/04/04 11:55:57;;;;;;;;;;;;;;;;;;110217;1244;60679;-81
2024/04/04 11:58:31;;;;;;;;;;;;;;;;;;110161;1249;61458;-81
2024/04/04 12:00:57;;;;;;;;;;;;;;;;;;110209;1244;60473;-81
2024/04/04 12:03:23;;;;;;;;;;;;;;;;;;110173;1244;60456;-81
2024/04/04 12:05:50;;;;;;;;;;;;;;;;;;110198;1246;60859;-81
2024/04/04 12:08:16;;;;;;;;;;;;;;;;;;109725;1244;60781;-81
2024/04/04 12:10:43;;;;;;;;;;;;;;;;;;110246;1244;60810;-80
2024/04/04 12:13:09;;;;;;;;;;;;;;;;;;110239;1244;60512;-82
2024/04/04 12:15:36;;;;;;;;;;;;;;;;;;110220;1244;60455;-81
2024/04/04 12:20:47;;;;;;;;;;;;;;;;;;109271;1245;62889;-80
2024/04/04 12:23:13;;;;;;;;;;;;;;;;;;108040;1249;60845;-80
2024/04/04 12:25:39;;;;;;;;;;;;;;;;;;107996;1245;62972;-80
2024/04/04 12:28:05;;;;;;;;;;;;;;;;;;108240;1245;62933;-81
2024/04/04 12:30:31;;;;;;;;;;;;;;;;;;108207;1244;62838;-80
2024/04/04 12:32:58;;;;;;;;;;;;;;;;;;108148;1247;63861;-81
2024/04/04 12:35:24;;;;;;;;;;;;;;;;;;108208;1247;64957;-81
2024/04/04 12:37:50;;;;;;;;;;;;;;;;;;108300;1247;62866;-80
2024/04/04 12:40:16;;;;;;;;;;;;;;;;;;107991;1247;62829;-80
2024/04/04 12:42:42;;;;;;;;;;;;;;;;;;107955;1244;62874;-81
2024/04/04 12:45:08;;;;;;;;;;;;;;;;;;107976;1244;62853;-80
2024/04/04 12:47:35;;;;;;;;;;;;;;;;;;108069;1247;63678;-80
2024/04/04 12:50:01;;;;;;;;;;;;;;;;;;107815;1247;62838;-81
2024/04/04 12:52:27;;;;;;;;;;;;;;;;;;108031;1244;62798;-81
2024/04/04 12:54:53;;;;;;;;;;;;;;;;;;107997;1244;63004;-82
2024/04/04 12:57:19;;;;;;;;;;;;;;;;;;108081;1244;62827;-80
2024/04/04 12:59:46;;;;;;;;;;;;;;;;;;108156;1244;62838;-81
2024/04/04 13:02:12;;;;;;;;;;;;;;;;;;108796;1244;62693;-81
2024/04/04 13:04:38;;;;;;;;;;;;;;;;;;110059;1246;60636;-80
2024/04/04 13:07:04;;;;;;;;;;;;;;;;;;110156;1244;60682;-80
2024/04/04 13:09:31;;;;;;;;;;;;;;;;;;110203;1244;60447;-81
2024/04/04 13:11:59;;;;;;;;;;;;;;;;;;110097;1245;60725;-81
2024/04/04 13:14:26;;;;;;;;;;;;;;;;;;107995;1249;62884;-81
2024/04/04 13:16:52;;;;;;;;;;;;;;;;;;108404;1244;64831;-80
2024/04/04 13:19:18;;;;;;;;;;;;;;;;;;109127;1244;62853;-81
2024/04/04 13:21:45;;;;;;;;;;;;;;;;;;108705;1244;62802;-80
2024/04/04 13:24:11;;;;;;;;;;;;;;;;;;108651;1245;62902;-80
2024/04/04 13:26:37;;;;;;;;;;;;;;;;;;108089;1244;62848;-80
2024/04/04 13:29:03;;;;;;;;;;;;;;;;;;107974;1244;62944;-80
2024/04/04 13:31:29;;;;;;;;;;;;;;;;;;107983;1245;61916;-81
2024/04/04 13:33:56;;;;;;;;;;;;;;;;;;108041;1245;63725;-80
2024/04/04 13:36:22;;;;;;;;;;;;;;;;;;107943;1244;62899;-80
2024/04/04 13:38:48;;;;;;;;;;;;;;;;;;107822;1244;62879;-81
2024/04/04 13:41:14;;;;;;;;;;;;;;;;;;107850;1245;62852;-80
2024/04/04 13:43:42;;;;;;;;;;;;;;;;;;107844;1244;62877;-81
2024/04/04 13:46:09;;;;;;;;;;;;;;;;;;107825;1247;62933;-79
2024/04/04 13:48:37;;;;;;;;;;;;;;;;;;107869;1247;62883;-80
2024/04/04 13:51:03;;;;;;;;;;;;;;;;;;107767;1246;62909;-81
2024/04/04 13:53:29;;;;;;;;;;;;;;;;;;107767;1249;62835;-80
2024/04/04 13:55:56;;;;;;;;;;;;;;;;;;107854;1244;62857;-81
2024/04/04 13:58:22;;;;;;;;;;;;;;;;;;107934;1244;63042;-80
2024/04/04 14:00:48;;;;;;;;;;;;;;;;;;107894;1243;62943;-81
2024/04/04 14:03:14;;;;;;;;;;;;;;;;;;107801;1249;62954;-81
2024/04/04 14:05:41;;;;;;;;;;;;;;;;;;107849;1244;62960;-80
2024/04/04 14:08:07;;;;;;;;;;;;;;;;;;107910;1244;62968;-80
2024/04/04 14:10:34;;;;;;;;;;;;;;;;;;107951;1247;62898;-82
2024/04/04 14:13:00;;;;;;;;;;;;;;;;;;107901;1247;62718;-80
2024/04/04 14:15:26;;;;;;;;;;;;;;;;;;108002;1244;63447;-82
2024/04/04 14:17:52;;;;;;;;;;;;;;;;;;107831;1244;63034;-80
2024/04/04 14:20:19;;;;;;;;;;;;;;;;;;107915;1244;64305;-80
2024/04/04 14:22:45;;;;;;;;;;;;;;;;;;107852;1244;62828;-80
2024/04/04 14:25:11;;;;;;;;;;;;;;;;;;107739;1249;62874;-80
2024/04/04 14:27:38;;;;;;;;;;;;;;;;;;107870;1244;62874;-81
2024/04/04 14:30:07;;;;;;;;;;;;;;;;;;107947;1244;62993;-79
2024/04/04 14:32:35;;;;;;;;;;;;;;;;;;107554;1249;62970;-80
2024/04/04 14:35:01;;;;;;;;;;;;;;;;;;107488;1244;63457;-80
2024/04/04 14:37:27;;;;;;;;;;;;;;;;;;107567;1247;62872;-81
2024/04/04 14:39:53;;;;;;;;;;;;;;;;;;107467;1245;62880;-80
2024/04/04 14:42:19;;;;;;;;;;;;;;;;;;107618;1244;62830;-80
2024/04/04 14:44:45;;;;;;;;;;;;;;;;;;107522;1247;62996;-80
2024/04/04 14:47:12;;;;;;;;;;;;;;;;;;107624;1244;63290;-81
2024/04/04 14:49:38;;;;;;;;;;;;;;;;;;107646;1249;62928;-80
2024/04/04 14:52:04;;;;;;;;;;;;;;;;;;107522;1249;62942;-81
2024/04/04 14:54:30;;;;;;;;;;;;;;;;;;107589;1244;62948;-80
2024/04/04 14:56:59;;;;;;;;;;;;;;;;;;107373;1244;62915;-80
2024/04/04 14:59:26;;;;;;;;;;;;;;;;;;107492;1246;62775;-81
2024/04/04 15:01:53;;;;;;;;;;;;;;;;;;107522;1245;62954;-80
2024/04/04 15:04:19;;;;;;;;;;;;;;;;;;107703;1244;63071;-80
2024/04/04 15:06:46;;;;;;;;;;;;;;;;;;107905;1244;62908;-80
2024/04/04 15:09:12;;;;;;;;;;;;;;;;;;107856;1246;62879;-80
2024/04/04 15:11:38;;;;;;;;;;;;;;;;;;107702;1249;62738;-80
2024/04/04 15:14:04;;;;;;;;;;;;;;;;;;107886;1244;62889;-80
2024/04/04 15:16:30;;;;;;;;;;;;;;;;;;107712;1246;62904;-80
2024/04/04 15:18:56;;;;;;;;;;;;;;;;;;107683;1244;62720;-81
2024/04/04 15:21:23;;;;;;;;;;;;;;;;;;107851;1249;62960;-80
2024/04/04 15:23:49;;;;;;;;;;;;;;;;;;107616;1249;63034;-80
2024/04/04 15:26:15;;;;;;;;;;;;;;;;;;107607;1249;62929;-80
2024/04/04 15:28:41;;;;;;;;;;;;;;;;;;107533;1244;62890;-80
2024/04/04 15:31:07;;;;;;;;;;;;;;;;;;107629;1244;62936;-80
2024/04/04 15:33:33;;;;;;;;;;;;;;;;;;107501;1244;62949;-81
2024/04/04 15:36:00;;;;;;;;;;;;;;;;;;107461;1246;62745;-80
2024/04/04 15:38:26;;;;;;;;;;;;;;;;;;107458;1245;62899;-80
2024/04/04 15:40:52;;;;;;;;;;;;;;;;;;107460;1245;62867;-81
2024/04/04 15:43:18;;;;;;;;;;;;;;;;;;107515;1249;63375;-81
2024/04/04 15:45:44;;;;;;;;;;;;;;;;;;107452;1249;62991;-80
2024/04/04 15:48:10;;;;;;;;;;;;;;;;;;107537;1244;62940;-80
2024/04/04 15:50:37;;;;;;;;;;;;;;;;;;107463;1244;62937;-80
2024/04/04 15:53:03;;;;;;;;;;;;;;;;;;107462;1246;62972;-82
2024/04/04 15:55:29;;;;;;;;;;;;;;;;;;107413;1249;62745;-81
2024/04/04 15:57:55;;;;;;;;;;;;;;;;;;107541;1244;62740;-81
2024/04/04 16:00:21;;;;;;;;;;;;;;;;;;107616;1246;63830;-81
2024/04/04 16:02:49;;;;;;;;;;;;;;;;;;107382;1249;62865;-83
2024/04/04 16:05:16;;;;;;;;;;;;;;;;;;107334;1245;62859;-81
2024/04/04 16:07:42;;;;;;;;;;;;;;;;;;107309;1247;62848;-81
2024/04/04 16:10:08;;;;;;;;;;;;;;;;;;107477;1249;62828;-80
2024/04/04 16:12:35;;;;;;;;;;;;;;;;;;107537;1246;63328;-81
2024/04/04 16:15:01;;;;;;;;;;;;;;;;;;107607;1246;62983;-82
2024/04/04 16:17:28;;;;;;;;;;;;;;;;;;107511;1249;62947;-80
2024/04/04 16:19:54;;;;;;;;;;;;;;;;;;107575;1249;62722;-81
2024/04/04 16:22:20;;;;;;;;;;;;;;;;;;107455;1245;62801;-80
2024/04/04 16:24:46;;;;;;;;;;;;;;;;;;107437;1244;62970;-80